sensor_id;sensor_type;location;lat;lon;timestamp;pressure;altitude;pressure_sealevel;temperature;humidity
6942;BME280;3510;43.200;27.920;2023-12-14T00:02:17;100093.66;;;12.22;100.00
6942;BME280;3510;43.200;27.920;2023-12-14T00:08:10;100044.94;;;12.10;100.00
6942;BME280;3510;43.200;27.920;2023-12-14T00:10:51;100091.63;;;12.30;100.00
6942;BME280;3510;43.200;27.920;2023-12-14T00:13:31;100099.59;;;12.36;100.00
6942;BME280;3510;43.200;27.920;2023-12-14T00:16:12;100068.53;;;12.37;100.00
6942;BME280;3510;43.200;27.920;2023-12-14T00:18:53;100079.91;;;12.44;100.00
6942;BME280;3510;43.200;27.920;2023-12-14T00:21:19;100084.97;;;12.44;100.00
6942;BME280;3510;43.200;27.920;2023-12-14T00:24:01;100093.06;;;12.26;100.00
6942;BME280;3510;43.200;27.920;2023-12-14T00:26:42;100096.84;;;12.20;100.00
6942;BME280;3510;43.200;27.920;2023-12-14T00:29:08;99954.69;;;11.29;100.00
6942;BME280;3510;43.200;27.920;2023-12-14T00:31:49;100094.38;;;11.83;100.00
6942;BME280;3510;43.200;27.920;2023-12-14T00:34:30;100031.25;;;11.31;100.00
6942;BME280;3510;43.200;27.920;2023-12-14T00:37:13;100091.88;;;11.34;100.00
6942;BME280;3510;43.200;27.920;2023-12-14T00:39:55;100092.81;;;11.60;100.00
6942;BME280;3510;43.200;27.920;2023-12-14T00:42:35;100055.06;;;11.48;100.00
6942;BME280;3510;43.200;27.920;2023-12-14T00:45:16;100070.09;;;11.83;100.00
6942;BME280;3510;43.200;27.920;2023-12-14T00:47:57;100079.75;;;12.02;100.00
6942;BME280;3510;43.200;27.920;2023-12-14T00:50:24;100090.84;;;11.93;100.00
6942;BME280;3510;43.200;27.920;2023-12-14T00:53:04;99987.91;;;11.49;100.00
6942;BME280;3510;43.200;27.920;2023-12-14T00:58:56;100078.63;;;11.74;100.00
6942;BME280;3510;43.200;27.920;2023-12-14T01:01:37;100072.72;;;11.73;100.00
6942;BME280;3510;43.200;27.920;2023-12-14T01:04:17;100022.44;;;11.50;100.00
6942;BME280;3510;43.200;27.920;2023-12-14T01:06:58;99998.75;;;11.23;100.00
6942;BME280;3510;43.200;27.920;2023-12-14T01:09:39;100085.88;;;11.32;100.00
6942;BME280;3510;43.200;27.920;2023-12-14T01:12:19;100081.75;;;11.21;100.00
6942;BME280;3510;43.200;27.920;2023-12-14T01:15:01;100020.44;;;10.72;100.00
6942;BME280;3510;43.200;27.920;2023-12-14T01:17:42;100035.50;;;10.84;100.00
6942;BME280;3510;43.200;27.920;2023-12-14T01:20:09;100063.38;;;11.10;100.00
6942;BME280;3510;43.200;27.920;2023-12-14T01:22:50;100046.88;;;11.02;100.00
6942;BME280;3510;43.200;27.920;2023-12-14T01:25:30;100051.63;;;11.23;100.00
6942;BME280;3510;43.200;27.920;2023-12-14T01:27:57;99973.56;;;10.86;100.00
6942;BME280;3510;43.200;27.920;2023-12-14T01:34:04;100039.94;;;11.11;100.00
6942;BME280;3510;43.200;27.920;2023-12-14T01:36:45;99996.03;;;10.48;100.00
6942;BME280;3510;43.200;27.920;2023-12-14T01:39:25;100013.97;;;10.64;100.00
6942;BME280;3510;43.200;27.920;2023-12-14T01:42:06;100031.88;;;10.92;100.00
6942;BME280;3510;43.200;27.920;2023-12-14T01:44:46;100029.91;;;11.00;100.00
6942;BME280;3510;43.200;27.920;2023-12-14T01:47:13;100000.41;;;10.74;100.00
6942;BME280;3510;43.200;27.920;2023-12-14T01:59:12;100041.44;;;10.04;100.00
6942;BME280;3510;43.200;27.920;2023-12-14T02:01:42;100040.81;;;10.06;100.00
6942;BME280;3510;43.200;27.920;2023-12-14T02:04:10;100031.03;;;9.87;100.00
6942;BME280;3510;43.200;27.920;2023-12-14T02:06:37;100031.44;;;9.48;100.00
6942;BME280;3510;43.200;27.920;2023-12-14T02:09:04;100023.53;;;9.32;100.00
6942;BME280;3510;43.200;27.920;2023-12-14T02:11:30;100042.16;;;9.45;100.00
6942;BME280;3510;43.200;27.920;2023-12-14T02:13:57;99995.09;;;9.21;100.00
6942;BME280;3510;43.200;27.920;2023-12-14T02:16:26;100031.56;;;9.50;100.00
6942;BME280;3510;43.200;27.920;2023-12-14T02:18:54;99950.25;;;9.04;100.00
6942;BME280;3510;43.200;27.920;2023-12-14T02:21:21;99928.97;;;8.77;100.00
6942;BME280;3510;43.200;27.920;2023-12-14T02:23:49;99976.59;;;9.09;100.00
6942;BME280;3510;43.200;27.920;2023-12-14T02:26:17;100019.03;;;9.50;100.00
6942;BME280;3510;43.200;27.920;2023-12-14T02:28:44;99998.34;;;9.42;100.00
6942;BME280;3510;43.200;27.920;2023-12-14T02:31:11;100027.41;;;9.50;100.00
6942;BME280;3510;43.200;27.920;2023-12-14T02:33:40;99973.66;;;9.14;100.00
6942;BME280;3510;43.200;27.920;2023-12-14T02:36:12;99934.53;;;8.94;100.00
6942;BME280;3510;43.200;27.920;2023-12-14T02:38:39;100033.94;;;9.48;100.00
6942;BME280;3510;43.200;27.920;2023-12-14T02:41:07;100003.00;;;9.37;100.00
6942;BME280;3510;43.200;27.920;2023-12-14T02:43:35;100020.53;;;9.48;100.00
6942;BME280;3510;43.200;27.920;2023-12-14T02:46:03;100020.00;;;9.52;100.00
6942;BME280;3510;43.200;27.920;2023-12-14T02:48:31;100018.81;;;9.58;100.00
6942;BME280;3510;43.200;27.920;2023-12-14T02:51:00;99863.47;;;8.62;100.00
6942;BME280;3510;43.200;27.920;2023-12-14T02:53:27;100004.31;;;9.32;100.00
6942;BME280;3510;43.200;27.920;2023-12-14T02:55:55;100021.44;;;9.38;100.00
6942;BME280;3510;43.200;27.920;2023-12-14T02:58:24;99974.78;;;9.18;100.00
6942;BME280;3510;43.200;27.920;2023-12-14T03:00:51;100019.66;;;9.47;100.00
6942;BME280;3510;43.200;27.920;2023-12-14T03:03:18;99934.75;;;8.98;100.00
6942;BME280;3510;43.200;27.920;2023-12-14T03:05:44;99967.13;;;9.16;100.00
6942;BME280;3510;43.200;27.920;2023-12-14T03:08:11;99912.22;;;8.87;100.00
6942;BME280;3510;43.200;27.920;2023-12-14T03:10:38;100035.19;;;9.53;100.00
6942;BME280;3510;43.200;27.920;2023-12-14T03:13:05;100028.91;;;9.70;100.00
6942;BME280;3510;43.200;27.920;2023-12-14T03:15:35;100022.19;;;9.59;100.00
6942;BME280;3510;43.200;27.920;2023-12-14T03:18:05;100016.94;;;9.56;100.00
6942;BME280;3510;43.200;27.920;2023-12-14T03:20:31;99993.81;;;9.60;100.00
6942;BME280;3510;43.200;27.920;2023-12-14T03:22:58;100021.94;;;9.78;100.00
6942;BME280;3510;43.200;27.920;2023-12-14T03:25:39;99934.19;;;9.45;100.00
6942;BME280;3510;43.200;27.920;2023-12-14T03:28:20;100005.69;;;9.84;100.00
6942;BME280;3510;43.200;27.920;2023-12-14T03:40:47;100001.59;;;9.75;100.00
6942;BME280;3510;43.200;27.920;2023-12-14T03:43:27;99895.03;;;9.37;100.00
6942;BME280;3510;43.200;27.920;2023-12-14T03:46:08;100002.97;;;9.93;100.00
6942;BME280;3510;43.200;27.920;2023-12-14T03:48:48;99954.16;;;10.01;100.00
6942;BME280;3510;43.200;27.920;2023-12-14T03:51:29;99988.50;;;10.36;100.00
6942;BME280;3510;43.200;27.920;2023-12-14T03:53:57;99957.88;;;10.41;100.00
6942;BME280;3510;43.200;27.920;2023-12-14T03:56:25;99969.81;;;10.44;100.00
6942;BME280;3510;43.200;27.920;2023-12-14T03:58:51;99959.97;;;10.35;100.00
6942;BME280;3510;43.200;27.920;2023-12-14T04:01:19;100010.91;;;10.80;100.00
6942;BME280;3510;43.200;27.920;2023-12-14T04:03:47;99971.78;;;10.97;100.00
6942;BME280;3510;43.200;27.920;2023-12-14T04:06:14;100033.88;;;10.84;100.00
6942;BME280;3510;43.200;27.920;2023-12-14T04:08:42;100033.13;;;10.62;100.00
6942;BME280;3510;43.200;27.920;2023-12-14T04:11:08;100031.47;;;10.51;100.00
6942;BME280;3510;43.200;27.920;2023-12-14T04:13:39;100028.44;;;9.98;100.00
6942;BME280;3510;43.200;27.920;2023-12-14T04:16:06;100047.44;;;9.94;100.00
6942;BME280;3510;43.200;27.920;2023-12-14T04:18:34;100040.81;;;10.18;100.00
6942;BME280;3510;43.200;27.920;2023-12-14T04:21:03;99959.66;;;9.62;100.00
6942;BME280;3510;43.200;27.920;2023-12-14T04:23:30;99915.91;;;9.03;100.00
6942;BME280;3510;43.200;27.920;2023-12-14T04:25:57;100032.53;;;9.52;100.00
6942;BME280;3510;43.200;27.920;2023-12-14T04:28:23;100024.00;;;9.72;100.00
6942;BME280;3510;43.200;27.920;2023-12-14T04:30:52;100037.56;;;9.52;100.00
6942;BME280;3510;43.200;27.920;2023-12-14T04:33:18;99952.19;;;8.96;100.00
6942;BME280;3510;43.200;27.920;2023-12-14T04:35:45;100019.03;;;9.83;100.00
6942;BME280;3510;43.200;27.920;2023-12-14T04:38:12;100017.22;;;10.16;100.00
6942;BME280;3510;43.200;27.920;2023-12-14T04:40:39;100002.47;;;10.09;100.00
6942;BME280;3510;43.200;27.920;2023-12-14T04:43:06;99929.28;;;9.59;100.00
6942;BME280;3510;43.200;27.920;2023-12-14T04:45:32;100018.50;;;10.11;100.00
6942;BME280;3510;43.200;27.920;2023-12-14T04:48:01;99979.16;;;9.88;100.00
6942;BME280;3510;43.200;27.920;2023-12-14T04:50:27;100022.03;;;10.25;100.00
6942;BME280;3510;43.200;27.920;2023-12-14T04:52:54;100016.78;;;10.22;100.00
6942;BME280;3510;43.200;27.920;2023-12-14T04:55:22;100011.75;;;10.22;100.00
6942;BME280;3510;43.200;27.920;2023-12-14T04:57:48;100016.06;;;10.46;100.00
6942;BME280;3510;43.200;27.920;2023-12-14T05:00:29;99967.38;;;10.10;100.00
6942;BME280;3510;43.200;27.920;2023-12-14T05:37:48;100012.75;;;11.19;100.00
6942;BME280;3510;43.200;27.920;2023-12-14T05:40:15;99973.03;;;10.78;100.00
6942;BME280;3510;43.200;27.920;2023-12-14T05:42:56;100006.03;;;11.06;100.00
6942;BME280;3510;43.200;27.920;2023-12-14T05:45:22;99992.91;;;10.99;100.00
6942;BME280;3510;43.200;27.920;2023-12-14T05:47:49;99985.03;;;11.06;100.00
6942;BME280;3510;43.200;27.920;2023-12-14T05:50:16;99972.31;;;11.04;100.00
6942;BME280;3510;43.200;27.920;2023-12-14T05:52:43;100009.97;;;11.39;100.00
6942;BME280;3510;43.200;27.920;2023-12-14T05:55:14;100013.19;;;11.87;100.00
6942;BME280;3510;43.200;27.920;2023-12-14T05:57:44;100007.69;;;12.06;100.00
6942;BME280;3510;43.200;27.920;2023-12-14T06:00:12;100024.47;;;12.19;100.00
6942;BME280;3510;43.200;27.920;2023-12-14T06:02:38;100015.75;;;12.27;100.00
6942;BME280;3510;43.200;27.920;2023-12-14T06:05:06;100032.63;;;12.68;100.00
6942;BME280;3510;43.200;27.920;2023-12-14T06:07:33;100035.09;;;12.79;100.00
6942;BME280;3510;43.200;27.920;2023-12-14T06:13:27;99998.75;;;11.98;100.00
6942;BME280;3510;43.200;27.920;2023-12-14T06:15:53;100047.91;;;12.04;100.00
6942;BME280;3510;43.200;27.920;2023-12-14T06:18:20;100051.97;;;11.77;100.00
6942;BME280;3510;43.200;27.920;2023-12-14T06:20:47;100020.94;;;11.65;100.00
6942;BME280;3510;43.200;27.920;2023-12-14T06:23:14;100047.41;;;11.47;100.00
6942;BME280;3510;43.200;27.920;2023-12-14T06:25:40;99975.88;;;10.71;100.00
6942;BME280;3510;43.200;27.920;2023-12-14T06:28:07;100064.91;;;11.08;100.00
6942;BME280;3510;43.200;27.920;2023-12-14T06:30:35;100063.03;;;11.18;100.00
6942;BME280;3510;43.200;27.920;2023-12-14T06:33:02;100066.84;;;11.24;100.00
6942;BME280;3510;43.200;27.920;2023-12-14T06:35:29;100030.22;;;11.16;100.00
6942;BME280;3510;43.200;27.920;2023-12-14T06:37:56;100055.66;;;11.32;100.00
6942;BME280;3510;43.200;27.920;2023-12-14T06:40:22;100054.97;;;11.47;100.00
6942;BME280;3510;43.200;27.920;2023-12-14T06:42:49;100045.16;;;11.26;100.00
6942;BME280;3510;43.200;27.920;2023-12-14T06:45:17;100041.69;;;11.24;100.00
6942;BME280;3510;43.200;27.920;2023-12-14T06:47:46;99999.13;;;11.04;100.00
6942;BME280;3510;43.200;27.920;2023-12-14T06:50:27;100059.34;;;11.37;100.00
6942;BME280;3510;43.200;27.920;2023-12-14T06:52:53;100057.84;;;11.39;100.00
6942;BME280;3510;43.200;27.920;2023-12-14T06:55:20;100046.19;;;11.42;100.00
6942;BME280;3510;43.200;27.920;2023-12-14T06:57:47;100052.19;;;11.55;100.00
6942;BME280;3510;43.200;27.920;2023-12-14T07:00:14;100051.31;;;11.55;100.00
6942;BME280;3510;43.200;27.920;2023-12-14T07:02:42;99990.97;;;11.31;100.00
6942;BME280;3510;43.200;27.920;2023-12-14T07:14:54;100049.19;;;12.11;100.00
6942;BME280;3510;43.200;27.920;2023-12-14T07:17:20;100024.50;;;11.94;100.00
6942;BME280;3510;43.200;27.920;2023-12-14T07:19:47;99979.31;;;11.58;100.00
6942;BME280;3510;43.200;27.920;2023-12-14T07:22:14;100064.16;;;12.21;100.00
6942;BME280;3510;43.200;27.920;2023-12-14T07:24:41;99979.75;;;11.78;100.00
6942;BME280;3510;43.200;27.920;2023-12-14T07:27:08;100065.50;;;12.16;100.00
6942;BME280;3510;43.200;27.920;2023-12-14T07:29:35;100050.34;;;12.03;100.00
6942;BME280;3510;43.200;27.920;2023-12-14T07:32:03;100074.09;;;12.31;100.00
6942;BME280;3510;43.200;27.920;2023-12-14T07:34:30;100086.50;;;12.42;100.00
6942;BME280;3510;43.200;27.920;2023-12-14T07:37:11;100091.88;;;12.59;100.00
6942;BME280;3510;43.200;27.920;2023-12-14T07:39:38;100087.19;;;12.39;100.00
6942;BME280;3510;43.200;27.920;2023-12-14T07:42:05;100096.44;;;12.14;100.00
6942;BME280;3510;43.200;27.920;2023-12-14T07:44:32;100052.97;;;12.04;100.00
6942;BME280;3510;43.200;27.920;2023-12-14T07:47:14;100070.72;;;12.06;100.00
6942;BME280;3510;43.200;27.920;2023-12-14T07:49:40;100089.28;;;12.20;100.00
6942;BME280;3510;43.200;27.920;2023-12-14T07:52:07;100081.16;;;12.24;100.00
6942;BME280;3510;43.200;27.920;2023-12-14T07:54:34;100081.94;;;12.36;100.00
6942;BME280;3510;43.200;27.920;2023-12-14T07:57:02;100089.06;;;12.55;100.00
6942;BME280;3510;43.200;27.920;2023-12-14T07:59:28;100087.41;;;12.55;100.00
6942;BME280;3510;43.200;27.920;2023-12-14T08:02:09;100095.88;;;12.69;100.00
6942;BME280;3510;43.200;27.920;2023-12-14T08:08:02;100108.25;;;13.19;100.00
6942;BME280;3510;43.200;27.920;2023-12-14T08:10:29;100111.59;;;13.31;100.00
6942;BME280;3510;43.200;27.920;2023-12-14T08:12:56;100076.69;;;13.39;100.00
6942;BME280;3510;43.200;27.920;2023-12-14T08:15:36;100100.47;;;13.99;100.00
6942;BME280;3510;43.200;27.920;2023-12-14T08:18:03;100087.59;;;14.09;100.00
6942;BME280;3510;43.200;27.920;2023-12-14T08:20:30;100117.78;;;14.21;100.00
6942;BME280;3510;43.200;27.920;2023-12-14T08:22:59;100035.94;;;13.91;100.00
6942;BME280;3510;43.200;27.920;2023-12-14T08:25:28;100051.28;;;14.23;100.00
6942;BME280;3510;43.200;27.920;2023-12-14T08:27:56;100100.28;;;14.54;100.00
6942;BME280;3510;43.200;27.920;2023-12-14T08:30:23;100003.31;;;14.25;100.00
6942;BME280;3510;43.200;27.920;2023-12-14T08:32:51;100102.34;;;15.21;100.00
6942;BME280;3510;43.200;27.920;2023-12-14T08:35:18;100077.63;;;15.17;100.00
6942;BME280;3510;43.200;27.920;2023-12-14T08:37:44;100101.41;;;15.67;100.00
6942;BME280;3510;43.200;27.920;2023-12-14T08:40:12;100107.81;;;15.93;100.00
6942;BME280;3510;43.200;27.920;2023-12-14T08:42:40;100111.78;;;15.88;100.00
6942;BME280;3510;43.200;27.920;2023-12-14T08:45:08;100038.75;;;15.49;100.00
6942;BME280;3510;43.200;27.920;2023-12-14T08:47:37;100042.09;;;15.65;100.00
6942;BME280;3510;43.200;27.920;2023-12-14T08:50:04;100095.44;;;15.99;100.00
6942;BME280;3510;43.200;27.920;2023-12-14T08:52:31;100076.44;;;15.75;100.00
6942;BME280;3510;43.200;27.920;2023-12-14T08:54:58;100085.84;;;15.93;100.00
6942;BME280;3510;43.200;27.920;2023-12-14T08:57:25;100065.50;;;16.44;100.00
6942;BME280;3510;43.200;27.920;2023-12-14T08:59:53;100101.81;;;16.59;100.00
6942;BME280;3510;43.200;27.920;2023-12-14T09:02:20;100097.94;;;16.84;100.00
6942;BME280;3510;43.200;27.920;2023-12-14T09:04:47;100012.59;;;16.17;100.00
6942;BME280;3510;43.200;27.920;2023-12-14T09:07:15;100097.66;;;16.43;100.00
6942;BME280;3510;43.200;27.920;2023-12-14T09:09:42;100079.59;;;16.55;100.00
6942;BME280;3510;43.200;27.920;2023-12-14T09:12:09;100082.34;;;16.76;100.00
6942;BME280;3510;43.200;27.920;2023-12-14T09:14:37;100077.41;;;16.45;100.00
6942;BME280;3510;43.200;27.920;2023-12-14T09:17:06;100080.41;;;16.54;100.00
6942;BME280;3510;43.200;27.920;2023-12-14T09:19:32;100070.59;;;16.44;100.00
6942;BME280;3510;43.200;27.920;2023-12-14T09:21:59;100063.94;;;16.82;100.00
6942;BME280;3510;43.200;27.920;2023-12-14T09:24:25;100074.44;;;16.72;100.00
6942;BME280;3510;43.200;27.920;2023-12-14T09:26:53;100061.53;;;16.15;100.00
6942;BME280;3510;43.200;27.920;2023-12-14T09:29:19;100071.25;;;16.06;100.00
6942;BME280;3510;43.200;27.920;2023-12-14T09:31:46;100080.69;;;15.43;100.00
6942;BME280;3510;43.200;27.920;2023-12-14T09:34:14;100064.69;;;15.13;100.00
6942;BME280;3510;43.200;27.920;2023-12-14T09:36:41;100056.50;;;15.17;100.00
6942;BME280;3510;43.200;27.920;2023-12-14T09:39:07;100064.81;;;15.31;100.00
6942;BME280;3510;43.200;27.920;2023-12-14T09:41:36;100064.00;;;15.15;100.00
6942;BME280;3510;43.200;27.920;2023-12-14T09:44:03;100036.81;;;15.13;100.00
6942;BME280;3510;43.200;27.920;2023-12-14T09:46:31;100028.06;;;15.39;100.00
6942;BME280;3510;43.200;27.920;2023-12-14T09:48:59;100053.41;;;16.04;100.00
6942;BME280;3510;43.200;27.920;2023-12-14T09:51:27;100050.38;;;16.11;100.00
6942;BME280;3510;43.200;27.920;2023-12-14T09:53:54;100010.59;;;15.94;100.00
6942;BME280;3510;43.200;27.920;2023-12-14T09:56:23;100043.13;;;16.19;100.00
6942;BME280;3510;43.200;27.920;2023-12-14T09:58:50;100004.81;;;15.96;100.00
6942;BME280;3510;43.200;27.920;2023-12-14T10:01:25;100044.81;;;16.18;100.00
6942;BME280;3510;43.200;27.920;2023-12-14T10:04:07;100033.81;;;16.36;100.00
6942;BME280;3510;43.200;27.920;2023-12-14T10:06:35;100033.44;;;16.46;100.00
6942;BME280;3510;43.200;27.920;2023-12-14T10:09:02;100040.69;;;16.56;100.00
6942;BME280;3510;43.200;27.920;2023-12-14T10:11:29;100037.06;;;16.51;100.00
6942;BME280;3510;43.200;27.920;2023-12-14T10:13:56;100021.75;;;16.67;100.00
6942;BME280;3510;43.200;27.920;2023-12-14T10:16:30;100032.28;;;16.93;100.00
6942;BME280;3510;43.200;27.920;2023-12-14T10:18:58;100027.75;;;17.05;100.00
6942;BME280;3510;43.200;27.920;2023-12-14T10:21:27;100020.03;;;17.22;100.00
6942;BME280;3510;43.200;27.920;2023-12-14T10:23:56;100028.84;;;17.30;100.00
6942;BME280;3510;43.200;27.920;2023-12-14T10:26:23;100011.44;;;17.39;100.00
6942;BME280;3510;43.200;27.920;2023-12-14T10:28:51;100032.69;;;17.59;100.00
6942;BME280;3510;43.200;27.920;2023-12-14T10:31:18;100039.91;;;17.50;100.00
6942;BME280;3510;43.200;27.920;2023-12-14T10:33:47;100044.09;;;17.69;100.00
6942;BME280;3510;43.200;27.920;2023-12-14T10:36:15;100037.84;;;17.80;100.00
6942;BME280;3510;43.200;27.920;2023-12-14T10:38:48;100032.41;;;17.92;100.00
6942;BME280;3510;43.200;27.920;2023-12-14T10:41:17;100019.13;;;17.99;100.00
6942;BME280;3510;43.200;27.920;2023-12-14T10:43:47;100017.78;;;18.07;100.00
6942;BME280;3510;43.200;27.920;2023-12-14T10:46:14;100020.13;;;18.02;100.00
6942;BME280;3510;43.200;27.920;2023-12-14T10:48:43;100031.91;;;18.00;100.00
6942;BME280;3510;43.200;27.920;2023-12-14T10:51:12;100026.00;;;18.01;100.00
6942;BME280;3510;43.200;27.920;2023-12-14T10:53:39;100031.03;;;18.00;100.00
6942;BME280;3510;43.200;27.920;2023-12-14T10:56:10;100034.66;;;18.05;100.00
6942;BME280;3510;43.200;27.920;2023-12-14T10:58:48;100023.16;;;17.94;100.00
6942;BME280;3510;43.200;27.920;2023-12-14T11:01:16;100024.47;;;17.84;100.00
6942;BME280;3510;43.200;27.920;2023-12-14T11:03:43;100027.31;;;17.92;100.00
6942;BME280;3510;43.200;27.920;2023-12-14T11:06:26;100016.47;;;17.96;100.00
6942;BME280;3510;43.200;27.920;2023-12-14T11:08:58;99990.22;;;17.98;100.00
6942;BME280;3510;43.200;27.920;2023-12-14T11:11:28;100023.31;;;18.18;100.00
6942;BME280;3510;43.200;27.920;2023-12-14T11:13:55;100035.41;;;18.23;100.00
6942;BME280;3510;43.200;27.920;2023-12-14T11:16:23;100021.75;;;18.21;100.00
6942;BME280;3510;43.200;27.920;2023-12-14T11:21:42;100018.75;;;18.31;100.00
6942;BME280;3510;43.200;27.920;2023-12-14T11:24:10;100023.97;;;18.55;100.00
6942;BME280;3510;43.200;27.920;2023-12-14T11:26:36;100028.41;;;18.61;100.00
6942;BME280;3510;43.200;27.920;2023-12-14T11:29:04;99996.81;;;18.35;100.00
6942;BME280;3510;43.200;27.920;2023-12-14T11:31:32;100035.88;;;18.56;100.00
6942;BME280;3510;43.200;27.920;2023-12-14T11:34:00;100020.00;;;18.41;100.00
6942;BME280;3510;43.200;27.920;2023-12-14T11:36:29;99990.38;;;18.22;100.00
6942;BME280;3510;43.200;27.920;2023-12-14T11:38:58;100041.53;;;18.49;100.00
6942;BME280;3510;43.200;27.920;2023-12-14T11:41:24;100036.63;;;18.54;100.00
6942;BME280;3510;43.200;27.920;2023-12-14T11:43:53;100009.19;;;18.47;100.00
6942;BME280;3510;43.200;27.920;2023-12-14T11:49:31;100026.97;;;18.68;100.00
6942;BME280;3510;43.200;27.920;2023-12-14T11:52:02;100034.31;;;18.81;100.00
6942;BME280;3510;43.200;27.920;2023-12-14T11:54:30;99974.38;;;18.47;100.00
6942;BME280;3510;43.200;27.920;2023-12-14T11:56:57;100030.44;;;18.91;100.00
6942;BME280;3510;43.200;27.920;2023-12-14T11:59:23;100026.22;;;18.91;100.00
6942;BME280;3510;43.200;27.920;2023-12-14T12:01:54;100032.56;;;18.80;100.00
6942;BME280;3510;43.200;27.920;2023-12-14T12:04:22;100033.41;;;18.58;100.00
6942;BME280;3510;43.200;27.920;2023-12-14T12:06:50;100043.69;;;18.61;100.00
6942;BME280;3510;43.200;27.920;2023-12-14T12:09:34;100039.88;;;18.71;100.00
6942;BME280;3510;43.200;27.920;2023-12-14T12:12:15;100032.22;;;18.71;100.00
6942;BME280;3510;43.200;27.920;2023-12-14T12:14:42;100012.25;;;18.60;100.00
6942;BME280;3510;43.200;27.920;2023-12-14T12:17:22;100019.72;;;18.77;100.00
6942;BME280;3510;43.200;27.920;2023-12-14T12:19:49;100030.00;;;18.80;100.00
6942;BME280;3510;43.200;27.920;2023-12-14T12:46:43;100027.50;;;19.02;100.00
6942;BME280;3510;43.200;27.920;2023-12-14T12:49:23;100004.88;;;18.89;100.00
6942;BME280;3510;43.200;27.920;2023-12-14T12:52:04;100035.31;;;19.07;100.00
6942;BME280;3510;43.200;27.920;2023-12-14T12:54:31;100006.03;;;18.97;100.00
6942;BME280;3510;43.200;27.920;2023-12-14T12:57:12;100024.13;;;19.03;100.00
6942;BME280;3510;43.200;27.920;2023-12-14T12:59:39;100045.84;;;18.94;100.00
6942;BME280;3510;43.200;27.920;2023-12-14T13:02:07;100052.88;;;18.99;100.00
6942;BME280;3510;43.200;27.920;2023-12-14T13:04:47;100061.31;;;18.98;100.00
6942;BME280;3510;43.200;27.920;2023-12-14T13:07:15;100047.00;;;18.79;100.00
6942;BME280;3510;43.200;27.920;2023-12-14T13:09:44;100042.22;;;18.66;100.00
6942;BME280;3510;43.200;27.920;2023-12-14T13:12:10;100047.22;;;18.65;100.00
6942;BME280;3510;43.200;27.920;2023-12-14T13:14:51;100048.56;;;18.55;100.00
6942;BME280;3510;43.200;27.920;2023-12-14T13:17:34;100041.66;;;18.52;100.00
6942;BME280;3510;43.200;27.920;2023-12-14T13:20:14;100102.63;;;18.69;100.00
6942;BME280;3510;43.200;27.920;2023-12-14T13:22:41;100002.22;;;17.80;100.00
6942;BME280;3510;43.200;27.920;2023-12-14T13:25:09;100100.69;;;17.81;100.00
6942;BME280;3510;43.200;27.920;2023-12-14T13:27:49;100109.88;;;17.59;100.00
6942;BME280;3510;43.200;27.920;2023-12-14T13:30:16;100087.88;;;17.23;100.00
6942;BME280;3510;43.200;27.920;2023-12-14T13:42:04;100141.38;;;16.88;100.00
6942;BME280;3510;43.200;27.920;2023-12-14T13:44:32;100157.16;;;16.83;100.00
6942;BME280;3510;43.200;27.920;2023-12-14T13:47:00;100112.09;;;16.44;100.00
6942;BME280;3510;43.200;27.920;2023-12-14T13:49:40;100169.25;;;16.70;100.00
6942;BME280;3510;43.200;27.920;2023-12-14T13:52:08;100114.38;;;16.22;100.00
6942;BME280;3510;43.200;27.920;2023-12-14T13:54:48;100187.88;;;16.53;100.00
6942;BME280;3510;43.200;27.920;2023-12-14T13:57:45;100195.41;;;16.52;100.00
6942;BME280;3510;43.200;27.920;2023-12-14T14:00:13;100205.19;;;16.44;100.00
6942;BME280;3510;43.200;27.920;2023-12-14T14:02:41;100209.31;;;16.42;100.00
6942;BME280;3510;43.200;27.920;2023-12-14T14:05:08;100178.56;;;16.03;100.00
6942;BME280;3510;43.200;27.920;2023-12-14T14:07:49;100167.44;;;16.01;100.00
6942;BME280;3510;43.200;27.920;2023-12-14T14:10:17;100199.19;;;16.09;100.00
6942;BME280;3510;43.200;27.920;2023-12-14T14:19:19;100210.19;;;15.77;100.00
6942;BME280;3510;43.200;27.920;2023-12-14T14:21:59;100230.59;;;15.95;100.00
6942;BME280;3510;43.200;27.920;2023-12-14T14:24:27;100237.81;;;15.87;100.00
6942;BME280;3510;43.200;27.920;2023-12-14T14:26:53;100236.25;;;15.75;100.00
6942;BME280;3510;43.200;27.920;2023-12-14T14:29:20;100122.94;;;14.96;100.00
6942;BME280;3510;43.200;27.920;2023-12-14T14:32:01;100212.72;;;15.16;100.00
6942;BME280;3510;43.200;27.920;2023-12-14T14:34:29;100232.31;;;15.19;100.00
6942;BME280;3510;43.200;27.920;2023-12-14T14:36:56;100211.38;;;14.92;100.00
6942;BME280;3510;43.200;27.920;2023-12-14T14:39:23;100244.47;;;15.10;100.00
6942;BME280;3510;43.200;27.920;2023-12-14T14:41:49;100243.31;;;14.90;100.00
6942;BME280;3510;43.200;27.920;2023-12-14T14:44:16;100257.59;;;15.03;100.00
6942;BME280;3510;43.200;27.920;2023-12-14T14:46:52;100259.06;;;14.99;100.00
6942;BME280;3510;43.200;27.920;2023-12-14T14:49:18;100198.94;;;14.52;100.00
6942;BME280;3510;43.200;27.920;2023-12-14T14:51:47;100265.50;;;14.94;100.00
6942;BME280;3510;43.200;27.920;2023-12-14T14:54:14;100278.03;;;14.91;100.00
6942;BME280;3510;43.200;27.920;2023-12-14T14:56:43;100255.63;;;14.54;100.00
6942;BME280;3510;43.200;27.920;2023-12-14T14:59:10;100215.41;;;14.17;100.00
6942;BME280;3510;43.200;27.920;2023-12-14T15:01:40;100265.56;;;14.38;100.00
6942;BME280;3510;43.200;27.920;2023-12-14T15:04:07;100280.25;;;14.43;100.00
6942;BME280;3510;43.200;27.920;2023-12-14T15:06:34;100213.44;;;13.98;100.00
6942;BME280;3510;43.200;27.920;2023-12-14T15:09:02;100305.19;;;14.37;100.00
6942;BME280;3510;43.200;27.920;2023-12-14T15:11:29;100297.28;;;14.18;100.00
6942;BME280;3510;43.200;27.920;2023-12-14T15:13:56;100304.06;;;14.19;100.00
6942;BME280;3510;43.200;27.920;2023-12-14T15:16:22;100297.41;;;14.06;100.00